Time;durP1;ratioP1;P1;durP2;ratioP2;P2;SDS_P1;SDS_P2;PMS_P1;PMS_P2;Temp;Humidity;BMP_temperature;BMP_pressure;BME280_temperature;BME280_humidity;BME280_pressure;Samples;Min_cycle;Max_cycle;Signal;HPM_P1;HPM_P2
2022/12/04 00:00:29;;;;;;;0.40;0.40;;;14.40;81.60;;;;;;5014839;28;21021;-65
2022/12/04 00:03:17;;;;;;;0.40;0.40;;;14.40;81.30;;;;;;5015423;28;20429;-63
2022/12/04 00:06:08;;;;;;;0.70;0.70;;;14.50;81.20;;;;;;5014983;28;20325;-64
2022/12/04 00:08:56;;;;;;;0.40;0.40;;;14.60;81.20;;;;;;5015120;28;20203;-64
2022/12/04 00:11:44;;;;;;;0.40;0.40;;;14.60;81.00;;;;;;5014674;28;20687;-64
2022/12/04 00:14:34;;;;;;;0.40;0.40;;;14.60;80.20;;;;;;5014777;28;20703;-64
2022/12/04 00:17:42;;;;;;;2.10;2.00;;;14.60;80.50;;;;;;5015176;28;20446;-63
2022/12/04 00:20:30;;;;;;;0.45;0.45;;;14.60;80.10;;;;;;5014925;28;20230;-66
2022/12/04 00:23:18;;;;;;;0.80;0.80;;;14.60;80.00;;;;;;5014217;28;20683;-64
2022/12/04 00:26:08;;;;;;;0.40;0.40;;;14.60;80.10;;;;;;5014437;28;20199;-63
2022/12/04 00:28:57;;;;;;;0.40;0.40;;;14.50;80.30;;;;;;5014420;28;20201;-64
2022/12/04 00:31:46;;;;;;;0.80;0.80;;;14.50;79.80;;;;;;5014486;28;20217;-64
2022/12/04 00:34:34;;;;;;;5.20;5.03;;;14.50;79.80;;;;;;5014350;28;20784;-64
2022/12/04 00:37:22;;;;;;;0.40;0.40;;;14.40;80.00;;;;;;5014041;28;20342;-64
2022/12/04 00:40:11;;;;;;;1.77;1.77;;;14.40;80.10;;;;;;5014453;28;20341;-63
2022/12/04 00:43:00;;;;;;;1.10;1.10;;;14.40;80.00;;;;;;5014112;28;20285;-63
2022/12/04 00:45:48;;;;;;;0.40;0.40;;;14.30;80.00;;;;;;5014283;28;20330;-63
2022/12/04 00:48:37;;;;;;;0.40;0.40;;;14.30;80.20;;;;;;5014560;28;20281;-62
2022/12/04 00:51:26;;;;;;;0.40;0.40;;;14.20;80.00;;;;;;5013691;28;20203;-63
2022/12/04 00:54:14;;;;;;;0.47;0.47;;;14.20;79.80;;;;;;5013681;28;20207;-63
2022/12/04 00:57:02;;;;;;;0.40;0.40;;;14.10;80.80;;;;;;5021643;28;20221;-63
2022/12/04 00:59:50;;;;;;;0.40;0.40;;;14.10;80.40;;;;;;5032926;28;20202;-62
2022/12/04 01:02:38;;;;;;;0.40;0.40;;;14.00;80.00;;;;;;5034245;28;20202;-62
2022/12/04 01:05:27;;;;;;;0.40;0.40;;;14.00;80.40;;;;;;5033417;28;20674;-63
2022/12/04 01:08:15;;;;;;;1.98;1.88;;;14.00;80.70;;;;;;5033171;28;20226;-63
2022/12/04 01:11:06;;;;;;;1.63;1.53;;;13.90;80.50;;;;;;5033406;28;20202;-63
2022/12/04 01:13:55;;;;;;;4.27;4.07;;;13.90;80.80;;;;;;5034040;28;20605;-63
2022/12/04 01:16:43;;;;;;;0.40;0.40;;;13.90;80.90;;;;;;5032315;28;20240;-62
2022/12/04 01:19:31;;;;;;;0.40;0.40;;;13.80;80.70;;;;;;5032661;28;20429;-63
2022/12/04 01:22:20;;;;;;;0.40;0.40;;;13.80;80.50;;;;;;5033752;28;20276;-63
2022/12/04 01:25:09;;;;;;;0.40;0.40;;;13.80;80.90;;;;;;5033472;28;20195;-63
2022/12/04 01:27:57;;;;;;;4.23;2.30;;;13.80;81.20;;;;;;5032842;28;20214;-63
2022/12/04 01:30:45;;;;;;;0.77;0.77;;;13.90;81.20;;;;;;5031982;28;20202;-63
2022/12/04 01:33:35;;;;;;;0.50;0.50;;;13.90;81.40;;;;;;5033501;28;20229;-63
2022/12/04 01:36:26;;;;;;;1.40;1.40;;;13.80;80.90;;;;;;5032315;28;20710;-63
2022/12/04 01:39:15;;;;;;;0.40;0.40;;;14.00;81.50;;;;;;5033160;28;20293;-62
2022/12/04 01:42:04;;;;;;;0.50;0.50;;;14.00;81.30;;;;;;5033361;28;20198;-62
2022/12/04 01:45:29;;;;;;;0.40;0.40;;;14.00;81.40;;;;;;5034563;28;20198;-62
2022/12/04 01:48:25;;;;;;;0.40;0.40;;;14.00;81.00;;;;;;5036835;28;20688;-62
2022/12/04 01:51:17;;;;;;;0.40;0.40;;;14.00;80.80;;;;;;5036547;28;20490;-63
2022/12/04 01:54:10;;;;;;;0.40;0.40;;;13.60;80.50;;;;;;5037588;28;20210;-63
2022/12/04 01:57:03;;;;;;;0.60;0.60;;;14.00;80.70;;;;;;5030473;28;20309;-62
2022/12/04 01:59:54;;;;;;;0.40;0.40;;;14.00;81.10;;;;;;5016834;28;20199;-62
2022/12/04 02:02:45;;;;;;;0.40;0.40;;;14.10;80.80;;;;;;5018794;28;20202;-63
2022/12/04 02:05:33;;;;;;;0.40;0.40;;;14.10;80.80;;;;;;5017412;28;20198;-63
2022/12/04 02:08:21;;;;;;;0.43;0.43;;;14.10;80.70;;;;;;5017794;28;20232;-63
2022/12/04 02:11:19;;;;;;;0.40;0.40;;;14.00;80.50;;;;;;5016995;28;20811;-63
2022/12/04 02:14:17;;;;;;;0.40;0.40;;;14.00;80.70;;;;;;5017314;28;20738;-63
2022/12/04 02:17:15;;;;;;;0.40;0.40;;;14.00;81.00;;;;;;5021419;28;20225;-63
2022/12/04 02:20:28;;;;;;;0.40;0.40;;;14.00;80.70;;;;;;5036317;28;20217;-63
2022/12/04 02:23:36;;;;;;;0.40;0.40;;;13.90;80.80;;;;;;5029722;28;20312;-62
2022/12/04 02:26:36;;;;;;;0.40;0.40;;;13.90;80.60;;;;;;5036030;28;20697;-63
2022/12/04 02:29:36;;;;;;;0.40;0.40;;;13.90;81.10;;;;;;5036370;28;20283;-63
2022/12/04 02:32:33;;;;;;;0.40;0.40;;;13.90;81.00;;;;;;5036562;28;20252;-61
2022/12/04 02:35:26;;;;;;;0.40;0.40;;;13.80;80.90;;;;;;5036945;28;20232;-62
2022/12/04 02:38:22;;;;;;;0.40;0.40;;;13.80;81.50;;;;;;5034446;28;20228;-62
2022/12/04 02:41:15;;;;;;;0.50;0.50;;;13.80;81.20;;;;;;5036310;28;20240;-63
2022/12/04 02:44:10;;;;;;;0.40;0.40;;;13.80;81.20;;;;;;5037058;28;20194;-63
2022/12/04 02:47:04;;;;;;;1.47;1.47;;;13.70;81.20;;;;;;5037263;28;20557;-62
2022/12/04 02:49:56;;;;;;;0.40;0.40;;;13.70;81.40;;;;;;5036712;28;20313;-63
2022/12/04 02:52:48;;;;;;;0.40;0.40;;;13.70;81.20;;;;;;5036630;28;20206;-62
2022/12/04 02:55:42;;;;;;;1.73;1.63;;;13.60;81.50;;;;;;5036244;28;20300;-62
2022/12/04 02:58:33;;;;;;;0.40;0.40;;;13.70;82.00;;;;;;5016921;28;20541;-63
2022/12/04 03:01:26;;;;;;;2.50;2.40;;;13.70;82.00;;;;;;5015886;28;20583;-63
2022/12/04 03:04:18;;;;;;;0.67;0.67;;;13.70;82.60;;;;;;5015845;28;20426;-64
2022/12/04 03:07:14;;;;;;;3.23;3.03;;;13.80;82.70;;;;;;5016076;28;20222;-62
2022/12/04 03:10:09;;;;;;;0.40;0.40;;;14.00;82.70;;;;;;5016054;28;20517;-63
2022/12/04 03:13:03;;;;;;;0.40;0.40;;;14.10;82.50;;;;;;5016339;28;20209;-63
2022/12/04 03:15:56;;;;;;;0.40;0.40;;;14.20;82.30;;;;;;5014642;28;20222;-63
2022/12/04 03:18:48;;;;;;;0.40;0.40;;;14.20;81.90;;;;;;5015447;28;20206;-62
2022/12/04 03:21:41;;;;;;;0.50;0.50;;;14.30;81.90;;;;;;5015814;28;20203;-63
2022/12/04 03:24:33;;;;;;;0.60;0.60;;;14.30;81.80;;;;;;5015285;28;20213;-64
2022/12/04 03:27:28;;;;;;;1.43;1.43;;;14.40;81.70;;;;;;5015937;28;20583;-62
2022/12/04 03:30:20;;;;;;;0.40;0.40;;;14.40;81.20;;;;;;5015183;28;20199;-63
2022/12/04 03:33:15;;;;;;;0.60;0.60;;;14.40;81.00;;;;;;5015367;28;20585;-62
2022/12/04 03:36:09;;;;;;;0.90;0.90;;;14.40;80.80;;;;;;5015311;28;20356;-63
2022/12/04 03:39:05;;;;;;;0.50;0.50;;;14.40;81.00;;;;;;5016276;28;20700;-63
2022/12/04 03:41:59;;;;;;;0.40;0.40;;;14.40;80.80;;;;;;5016401;28;20213;-64
2022/12/04 03:44:53;;;;;;;0.40;0.40;;;14.30;80.80;;;;;;5014635;28;20211;-63
2022/12/04 03:47:46;;;;;;;0.40;0.40;;;14.30;80.80;;;;;;5015509;28;20214;-62
2022/12/04 03:50:37;;;;;;;0.40;0.40;;;14.30;80.70;;;;;;5014432;28;20250;-63
2022/12/04 03:53:30;;;;;;;0.40;0.40;;;14.30;80.60;;;;;;5015706;28;20667;-63
2022/12/04 03:56:23;;;;;;;0.40;0.40;;;14.20;80.10;;;;;;5013754;28;20222;-63
2022/12/04 03:59:17;;;;;;;0.40;0.40;;;14.20;80.60;;;;;;5014567;28;20357;-63
2022/12/04 04:02:09;;;;;;;3.60;3.30;;;14.20;80.80;;;;;;5014032;28;20199;-62
2022/12/04 04:04:59;;;;;;;0.40;0.40;;;14.10;80.60;;;;;;5015278;28;20209;-62
2022/12/04 04:07:52;;;;;;;4.97;4.53;;;14.10;80.90;;;;;;5013060;28;20215;-62
2022/12/04 04:10:40;;;;;;;0.40;0.40;;;14.00;81.00;;;;;;5014598;28;20202;-62
2022/12/04 04:26:13;;;;;;;43.60;13.17;;;13.90;81.40;;;;;;5014396;28;20199;-63
2022/12/04 04:29:03;;;;;;;0.95;0.95;;;13.90;81.60;;;;;;5014715;28;20521;-63
2022/12/04 04:31:58;;;;;;;0.97;0.97;;;13.80;81.50;;;;;;5025436;28;20198;-63
2022/12/04 04:34:53;;;;;;;1.23;1.23;;;13.80;81.50;;;;;;5034456;28;20198;-63
2022/12/04 04:37:53;;;;;;;0.40;0.40;;;13.80;81.10;;;;;;5083049;22;20490;-63
2022/12/04 04:40:50;;;;;;;0.40;0.40;;;13.80;82.00;;;;;;5092327;28;20449;-63
2022/12/04 04:43:45;;;;;;;0.40;0.40;;;13.80;81.90;;;;;;5093047;28;20193;-63
2022/12/04 04:46:39;;;;;;;0.70;0.70;;;13.70;81.90;;;;;;5090726;28;20900;-64
2022/12/04 04:49:32;;;;;;;0.40;0.40;;;13.80;82.40;;;;;;5071773;28;20207;-64
2022/12/04 04:52:23;;;;;;;0.40;0.40;;;14.00;82.70;;;;;;5072041;28;20197;-64
2022/12/04 04:55:12;;;;;;;0.40;0.40;;;14.20;82.40;;;;;;5072264;28;20728;-64
2022/12/04 04:58:06;;;;;;;1.63;1.57;;;14.40;82.20;;;;;;5056959;28;20578;-64
2022/12/04 05:01:00;;;;;;;1.23;1.13;;;14.50;81.90;;;;;;5052324;28;20295;-64
2022/12/04 05:03:49;;;;;;;0.50;0.50;;;14.60;81.60;;;;;;5051566;28;20698;-64
2022/12/04 05:06:37;;;;;;;0.40;0.40;;;14.70;81.50;;;;;;5052667;28;20334;-64
2022/12/04 05:09:26;;;;;;;0.40;0.40;;;14.70;81.30;;;;;;5051497;28;20197;-64
2022/12/04 05:12:14;;;;;;;0.40;0.40;;;14.80;81.30;;;;;;5051394;28;20197;-64
2022/12/04 05:15:02;;;;;;;0.40;0.40;;;14.90;81.20;;;;;;5052550;28;20197;-64
2022/12/04 05:17:50;;;;;;;0.40;0.40;;;14.90;81.10;;;;;;5052670;28;20622;-64
2022/12/04 05:20:39;;;;;;;0.40;0.40;;;14.90;80.90;;;;;;5051815;28;20198;-64
2022/12/04 05:23:27;;;;;;;0.68;0.68;;;14.90;80.90;;;;;;5052551;28;20276;-64
2022/12/04 05:26:15;;;;;;;3.80;3.60;;;14.90;80.70;;;;;;5052556;28;20215;-64
2022/12/04 05:29:03;;;;;;;0.40;0.40;;;14.80;80.60;;;;;;5051146;28;20614;-64
2022/12/04 05:31:51;;;;;;;0.40;0.40;;;14.80;80.50;;;;;;5052312;28;20577;-64
2022/12/04 05:34:39;;;;;;;19.65;18.35;;;14.80;80.50;;;;;;5052236;28;20197;-64
2022/12/04 05:37:29;;;;;;;3.30;3.20;;;14.70;80.30;;;;;;5050181;28;20229;-64
2022/12/04 05:40:17;;;;;;;1.58;1.48;;;14.70;80.30;;;;;;5051803;28;20193;-65
2022/12/04 05:43:05;;;;;;;1.13;1.13;;;14.60;80.40;;;;;;5051561;28;20223;-64
2022/12/04 05:45:53;;;;;;;2.60;2.50;;;14.60;80.70;;;;;;5052036;28;20202;-64
2022/12/04 05:48:41;;;;;;;0.40;0.40;;;14.50;80.30;;;;;;5051829;28;20292;-64
2022/12/04 05:51:29;;;;;;;0.52;0.52;;;14.50;80.70;;;;;;5051737;28;20203;-64
2022/12/04 05:54:19;;;;;;;0.40;0.40;;;14.40;80.50;;;;;;5050759;28;20673;-64
2022/12/04 05:57:07;;;;;;;1.60;1.50;;;14.40;80.80;;;;;;5059653;28;20647;-64
2022/12/04 05:59:55;;;;;;;1.17;1.17;;;14.40;80.80;;;;;;5071669;28;20570;-64
2022/12/04 06:02:44;;;;;;;0.40;0.40;;;14.30;80.50;;;;;;5071887;28;20203;-64
2022/12/04 06:05:32;;;;;;;0.40;0.40;;;14.20;80.70;;;;;;5072027;28;20211;-64
2022/12/04 06:08:20;;;;;;;0.73;0.73;;;14.20;80.80;;;;;;5071489;28;20677;-64
2022/12/04 06:11:14;;;;;;;0.40;0.40;;;14.10;80.80;;;;;;5072030;28;20201;-64
2022/12/04 06:14:04;;;;;;;0.50;0.50;;;14.10;80.90;;;;;;5072014;28;20204;-64
2022/12/04 06:16:52;;;;;;;2.60;2.50;;;14.00;81.00;;;;;;5072392;28;20224;-64
2022/12/04 06:19:40;;;;;;;0.70;0.70;;;14.00;81.50;;;;;;5070994;28;20197;-64
2022/12/04 06:22:28;;;;;;;2.33;2.20;;;14.00;81.50;;;;;;5071447;28;20199;-64
2022/12/04 06:25:16;;;;;;;0.40;0.40;;;14.00;81.40;;;;;;5071635;28;20201;-64
2022/12/04 06:28:06;;;;;;;0.40;0.40;;;14.00;81.60;;;;;;5070838;28;20219;-64
2022/12/04 06:30:54;;;;;;;0.50;0.50;;;14.00;81.40;;;;;;5072452;28;20634;-64
2022/12/04 06:33:42;;;;;;;0.50;0.50;;;13.90;81.30;;;;;;5076596;28;20801;-64
2022/12/04 06:36:30;;;;;;;3.33;3.22;;;13.90;81.90;;;;;;5075357;28;20280;-64
2022/12/04 06:39:18;;;;;;;0.40;0.40;;;13.90;82.40;;;;;;5075104;28;20203;-64
2022/12/04 06:42:06;;;;;;;0.63;0.63;;;14.00;82.70;;;;;;5074822;28;20200;-64
2022/12/04 06:44:56;;;;;;;0.40;0.40;;;14.10;82.60;;;;;;5075238;28;20279;-64
2022/12/04 06:47:44;;;;;;;2.50;2.40;;;14.30;82.30;;;;;;5074915;28;20215;-64
2022/12/04 06:50:32;;;;;;;0.40;0.40;;;14.40;82.20;;;;;;5074524;28;20707;-64
2022/12/04 06:53:20;;;;;;;3.47;3.27;;;14.50;82.00;;;;;;5074799;28;20207;-64
2022/12/04 06:56:10;;;;;;;3.50;3.17;;;14.50;81.70;;;;;;5074003;28;20196;-64
2022/12/04 06:59:00;;;;;;;1.03;1.03;;;14.50;81.70;;;;;;5073789;28;20228;-64
2022/12/04 07:01:49;;;;;;;0.70;0.70;;;14.60;81.60;;;;;;5074773;28;20209;-64
2022/12/04 07:04:37;;;;;;;2.50;2.35;;;14.70;81.50;;;;;;5074555;28;20197;-64
2022/12/04 07:07:25;;;;;;;1.25;1.25;;;14.60;81.60;;;;;;5074296;28;20220;-64
2022/12/04 07:10:13;;;;;;;0.40;0.40;;;14.70;81.20;;;;;;5073430;28;20207;-64
2022/12/04 07:13:02;;;;;;;0.40;0.40;;;14.70;81.10;;;;;;5074702;28;20578;-64
2022/12/04 07:15:50;;;;;;;0.60;0.60;;;14.70;81.30;;;;;;5074301;28;20192;-65
2022/12/04 07:18:40;;;;;;;0.40;0.40;;;14.60;80.90;;;;;;5074035;28;20231;-65
2022/12/04 07:21:30;;;;;;;0.40;0.40;;;14.60;80.90;;;;;;5074030;28;20208;-65
2022/12/04 07:24:18;;;;;;;2.75;2.58;;;14.50;80.90;;;;;;5073640;28;20203;-65
2022/12/04 07:27:06;;;;;;;0.40;0.40;;;14.50;80.20;;;;;;5074940;28;20220;-65
2022/12/04 07:29:54;;;;;;;0.40;0.40;;;14.90;81.40;;;;;;5073683;28;20235;-65
2022/12/04 07:32:43;;;;;;;0.40;0.40;;;14.40;81.50;;;;;;5086858;28;20227;-64
2022/12/04 07:35:32;;;;;;;0.90;0.90;;;14.40;80.80;;;;;;5090731;28;20200;-65
2022/12/04 07:38:20;;;;;;;0.40;0.40;;;14.40;81.10;;;;;;5090536;28;20232;-65
2022/12/04 07:41:10;;;;;;;0.93;0.93;;;14.30;80.90;;;;;;5091793;28;20207;-65
2022/12/04 07:43:58;;;;;;;0.40;0.40;;;14.30;81.10;;;;;;5087491;28;20203;-65
2022/12/04 07:46:46;;;;;;;0.40;0.40;;;14.30;80.60;;;;;;5075048;28;20199;-65
2022/12/04 07:49:34;;;;;;;1.63;1.57;;;14.20;81.00;;;;;;5072012;28;20196;-65
2022/12/04 07:52:24;;;;;;;0.40;0.40;;;14.30;81.10;;;;;;5074197;28;20197;-66
2022/12/04 07:55:12;;;;;;;11.73;3.13;;;14.20;81.20;;;;;;5072962;28;20197;-65
2022/12/04 07:58:02;;;;;;;0.67;0.67;;;14.00;81.10;;;;;;5058195;28;20229;-65
2022/12/04 08:00:50;;;;;;;0.40;0.40;;;14.20;81.40;;;;;;5054284;28;20202;-64
2022/12/04 08:03:39;;;;;;;1.70;1.60;;;14.30;81.60;;;;;;5052793;28;20212;-64
2022/12/04 08:06:34;;;;;;;9.25;3.22;;;14.10;81.60;;;;;;5053051;28;20233;-65
2022/12/04 08:09:24;;;;;;;8.80;8.30;;;14.10;81.70;;;;;;5052636;28;20243;-64
2022/12/04 08:12:12;;;;;;;0.40;0.40;;;14.00;81.70;;;;;;5054298;28;20198;-65
2022/12/04 08:15:00;;;;;;;1.23;1.23;;;14.00;81.90;;;;;;5057354;28;20201;-65
2022/12/04 08:17:48;;;;;;;0.50;0.50;;;14.00;81.90;;;;;;5057535;28;20245;-65
2022/12/04 08:20:36;;;;;;;0.40;0.40;;;14.00;81.90;;;;;;5058112;28;20208;-65
2022/12/04 08:23:24;;;;;;;0.40;0.40;;;14.00;82.10;;;;;;5056732;28;20287;-64
2022/12/04 08:26:13;;;;;;;0.40;0.40;;;13.90;82.00;;;;;;5054950;28;20197;-64
2022/12/04 08:29:03;;;;;;;0.40;0.40;;;13.90;82.00;;;;;;5053574;28;20723;-64
2022/12/04 08:31:51;;;;;;;0.40;0.40;;;13.80;83.00;;;;;;5053247;28;20197;-64
2022/12/04 08:34:39;;;;;;;0.40;0.40;;;13.80;82.60;;;;;;5053076;28;20193;-64
2022/12/04 08:37:27;;;;;;;1.27;1.27;;;13.90;83.10;;;;;;5053708;28;20221;-64
2022/12/04 08:40:16;;;;;;;1.33;1.33;;;13.90;83.20;;;;;;5054727;28;20778;-64
2022/12/04 08:43:05;;;;;;;0.50;0.50;;;13.90;82.90;;;;;;5053437;28;20283;-65
2022/12/04 08:45:57;;;;;;;0.60;0.60;;;14.00;83.10;;;;;;5053201;28;20211;-64
2022/12/04 08:48:46;;;;;;;0.40;0.40;;;14.00;83.40;;;;;;5052933;28;20239;-64
2022/12/04 08:51:34;;;;;;;0.90;0.90;;;14.00;82.90;;;;;;5053038;28;20284;-64
2022/12/04 08:54:22;;;;;;;0.50;0.50;;;14.00;82.90;;;;;;5052710;28;20509;-65
2022/12/04 08:57:10;;;;;;;0.40;0.40;;;14.00;82.70;;;;;;5061099;28;20220;-64
2022/12/04 09:00:00;;;;;;;2.30;1.33;;;14.00;81.50;;;;;;5072407;28;20231;-64
2022/12/04 09:02:49;;;;;;;0.40;0.40;;;14.00;82.20;;;;;;5072131;28;20204;-64
2022/12/04 09:05:37;;;;;;;0.40;0.40;;;14.10;82.30;;;;;;5072188;28;20365;-65
2022/12/04 09:08:25;;;;;;;2.87;2.63;;;14.00;82.00;;;;;;5071985;28;20300;-65
2022/12/04 09:11:16;;;;;;;0.50;0.50;;;14.10;82.10;;;;;;5072103;28;20326;-64
2022/12/04 09:14:04;;;;;;;0.40;0.40;;;14.10;82.00;;;;;;5072831;28;20212;-64
2022/12/04 09:16:54;;;;;;;0.40;0.40;;;13.90;81.30;;;;;;5071655;28;20209;-64
2022/12/04 09:19:42;;;;;;;0.50;0.50;;;14.10;81.90;;;;;;5071687;28;20592;-64
2022/12/04 09:22:30;;;;;;;0.40;0.40;;;14.10;81.90;;;;;;5072172;28;20201;-64
2022/12/04 09:25:38;;;;;;;0.50;0.50;;;14.10;81.90;;;;;;5072671;28;20196;-65
2022/12/04 09:28:26;;;;;;;4.68;4.38;;;14.00;81.90;;;;;;5071846;28;20227;-64
2022/12/04 09:31:15;;;;;;;0.40;0.40;;;14.00;81.90;;;;;;5072445;28;20284;-64
2022/12/04 09:34:05;;;;;;;2.57;2.40;;;14.00;82.10;;;;;;5072333;28;20695;-64
2022/12/04 09:36:53;;;;;;;10.67;10.27;;;13.90;81.60;;;;;;5071331;28;20279;-64
2022/12/04 09:39:41;;;;;;;1.27;1.27;;;14.00;82.20;;;;;;5071599;28;20212;-64
2022/12/04 09:42:47;;;;;;;1.63;1.57;;;14.00;82.10;;;;;;5073396;28;20201;-64
2022/12/04 09:45:44;;;;;;;0.40;0.40;;;13.90;81.60;;;;;;5071947;28;20200;-65
2022/12/04 09:48:35;;;;;;;0.40;0.40;;;13.90;82.30;;;;;;5071817;28;20231;-64
2022/12/04 09:51:26;;;;;;;0.40;0.40;;;13.90;82.20;;;;;;5071501;28;20200;-64
2022/12/04 09:54:17;;;;;;;0.40;0.40;;;13.90;82.60;;;;;;5071835;28;20211;-64
2022/12/04 09:57:15;;;;;;;0.40;0.40;;;13.90;83.00;;;;;;5071883;28;20314;-64
2022/12/04 10:00:04;;;;;;;0.40;0.40;;;13.90;83.10;;;;;;5071662;28;20220;-65
2022/12/04 10:02:58;;;;;;;1.33;1.23;;;14.00;83.00;;;;;;5071558;28;21032;-64
2022/12/04 10:05:53;;;;;;;0.40;0.40;;;14.10;82.60;;;;;;5072410;28;20196;-65
2022/12/04 10:08:45;;;;;;;2.53;2.33;;;14.20;82.50;;;;;;5075400;28;20243;-64
2022/12/04 10:11:50;;;;;;;0.60;0.60;;;14.30;82.50;;;;;;5074215;28;20203;-65
2022/12/04 10:14:52;;;;;;;0.88;0.88;;;14.40;82.40;;;;;;5074713;28;20200;-65
2022/12/04 10:17:55;;;;;;;0.40;0.40;;;14.40;82.30;;;;;;5074618;28;20299;-64
2022/12/04 10:20:56;;;;;;;0.40;0.40;;;14.40;82.20;;;;;;5074713;28;20300;-64
2022/12/04 10:23:58;;;;;;;0.50;0.50;;;14.50;82.20;;;;;;5074491;28;20205;-64
2022/12/04 10:26:48;;;;;;;0.40;0.40;;;14.40;81.70;;;;;;5074634;28;20262;-64
2022/12/04 10:29:38;;;;;;;8.55;7.70;;;14.50;81.80;;;;;;5074083;28;20464;-64
2022/12/04 10:32:30;;;;;;;0.40;0.40;;;14.50;81.60;;;;;;5075285;28;20684;-64
2022/12/04 10:35:21;;;;;;;0.40;0.40;;;14.50;81.60;;;;;;5075471;28;20212;-64
2022/12/04 10:38:14;;;;;;;1.23;1.23;;;14.50;81.50;;;;;;5075072;28;20229;-64
2022/12/04 10:41:09;;;;;;;0.40;0.40;;;14.50;81.40;;;;;;5074370;28;20708;-66
2022/12/04 10:44:02;;;;;;;0.40;0.40;;;14.50;81.40;;;;;;5074118;28;20193;-65
2022/12/04 10:46:55;;;;;;;12.10;4.10;;;14.50;80.70;;;;;;5074781;28;20201;-66
2022/12/04 10:49:44;;;;;;;0.40;0.40;;;14.50;80.80;;;;;;5074354;28;20189;-66
2022/12/04 10:52:32;;;;;;;2.83;1.95;;;14.50;81.40;;;;;;5073799;28;20197;-66
2022/12/04 10:55:31;;;;;;;0.50;0.50;;;14.40;81.30;;;;;;5075462;28;20254;-65
2022/12/04 10:58:21;;;;;;;0.77;0.77;;;14.40;81.40;;;;;;5074672;28;20228;-66
2022/12/04 11:01:16;;;;;;;0.40;0.40;;;14.30;81.10;;;;;;5074120;28;20653;-66
2022/12/04 11:04:08;;;;;;;0.85;0.85;;;14.30;80.90;;;;;;5074774;28;20279;-66
2022/12/04 11:07:02;;;;;;;0.40;0.40;;;14.30;81.60;;;;;;5074874;28;20299;-65
2022/12/04 11:09:56;;;;;;;0.40;0.40;;;14.30;81.70;;;;;;5075039;28;20212;-66
2022/12/04 11:12:54;;;;;;;0.40;0.40;;;14.30;81.70;;;;;;5074586;28;20573;-65
2022/12/04 11:15:45;;;;;;;0.40;0.40;;;14.20;81.80;;;;;;5073798;28;20334;-67
2022/12/04 11:18:35;;;;;;;3.13;3.03;;;14.20;81.90;;;;;;5073088;28;20221;-63
2022/12/04 11:21:27;;;;;;;5.82;5.47;;;14.10;81.90;;;;;;5073935;28;20587;-64
2022/12/04 11:24:29;;;;;;;8.77;8.27;;;14.10;82.00;;;;;;5074712;28;20197;-66
2022/12/04 11:27:21;;;;;;;0.40;0.40;;;14.00;82.00;;;;;;5073490;28;20215;-64
2022/12/04 11:30:15;;;;;;;2.43;1.93;;;14.00;82.10;;;;;;5073803;28;20196;-64
2022/12/04 11:33:14;;;;;;;0.67;0.67;;;14.00;82.40;;;;;;5074133;28;20302;-63
2022/12/04 11:36:16;;;;;;;0.40;0.40;;;14.00;82.90;;;;;;5074221;28;20327;-65
2022/12/04 11:39:07;;;;;;;0.40;0.40;;;14.10;82.90;;;;;;5073705;28;20220;-63
2022/12/04 11:42:03;;;;;;;1.47;1.47;;;14.20;82.90;;;;;;5073323;28;20284;-64
2022/12/04 11:44:54;;;;;;;0.50;0.50;;;14.30;82.80;;;;;;5075180;28;20283;-66
2022/12/04 11:47:53;;;;;;;0.60;0.60;;;14.40;82.30;;;;;;5076409;28;20217;-64
2022/12/04 11:50:49;;;;;;;0.40;0.40;;;14.40;82.60;;;;;;5076281;28;20203;-64
2022/12/04 11:53:44;;;;;;;1.37;1.37;;;14.40;82.50;;;;;;5075467;28;20283;-65
2022/12/04 11:56:35;;;;;;;0.40;0.40;;;14.50;82.40;;;;;;5075009;28;20201;-64
2022/12/04 11:59:46;;;;;;;0.60;0.60;;;14.50;82.30;;;;;;5071957;28;20207;-65
2022/12/04 12:02:59;;;;;;;0.40;0.40;;;14.50;82.30;;;;;;5073920;28;20201;-64
2022/12/04 12:06:17;;;;;;;0.40;0.40;;;14.50;82.10;;;;;;5074024;28;20258;-65
2022/12/04 12:09:19;;;;;;;0.40;0.40;;;14.50;81.90;;;;;;5073375;28;20704;-65
2022/12/04 12:12:14;;;;;;;0.40;0.40;;;14.50;82.00;;;;;;5072243;28;20200;-64
2022/12/04 12:15:11;;;;;;;0.40;0.40;;;14.50;81.80;;;;;;5072074;28;20197;-65
2022/12/04 12:18:16;;;;;;;1.37;1.37;;;14.50;81.80;;;;;;5072887;28;20588;-64
2022/12/04 12:21:17;;;;;;;0.40;0.40;;;14.50;81.80;;;;;;5072779;28;20277;-64
2022/12/04 12:24:19;;;;;;;1.17;1.17;;;14.50;81.80;;;;;;5072647;28;20203;-64
2022/12/04 12:27:22;;;;;;;0.40;0.40;;;14.40;81.80;;;;;;5072624;28;20220;-65
2022/12/04 12:30:15;;;;;;;1.27;1.27;;;14.40;81.80;;;;;;5073121;28;20275;-65
2022/12/04 12:33:14;;;;;;;0.60;0.60;;;14.40;81.80;;;;;;5072830;28;20219;-64
2022/12/04 12:36:06;;;;;;;0.40;0.40;;;14.40;82.00;;;;;;5071920;28;20197;-65
2022/12/04 12:38:59;;;;;;;0.40;0.40;;;14.30;82.00;;;;;;5072553;28;20229;-65
2022/12/04 12:41:52;;;;;;;0.80;0.80;;;14.30;82.10;;;;;;5071765;28;20221;-64
2022/12/04 12:44:48;;;;;;;0.50;0.50;;;14.30;82.30;;;;;;5073405;28;20208;-64
2022/12/04 12:47:42;;;;;;;0.40;0.40;;;14.20;82.30;;;;;;5073091;28;20220;-64
2022/12/04 12:50:38;;;;;;;0.87;0.87;;;14.20;82.30;;;;;;5071554;28;20661;-65
2022/12/04 12:53:32;;;;;;;1.05;1.05;;;14.10;82.30;;;;;;5071928;28;20302;-65
2022/12/04 12:56:30;;;;;;;0.40;0.40;;;14.10;82.50;;;;;;5071951;28;20435;-65
2022/12/04 12:59:22;;;;;;;4.13;3.92;;;14.10;82.60;;;;;;5071966;28;20286;-66
2022/12/04 13:02:22;;;;;;;1.73;1.58;;;14.10;82.70;;;;;;5071977;28;20246;-64
2022/12/04 13:05:13;;;;;;;0.60;0.60;;;14.00;82.80;;;;;;5072870;28;20231;-65
2022/12/04 13:08:06;;;;;;;4.00;3.70;;;14.00;82.80;;;;;;5073175;28;20307;-63
2022/12/04 13:11:04;;;;;;;0.40;0.40;;;14.00;83.00;;;;;;5072050;28;20203;-64
2022/12/04 13:13:57;;;;;;;0.40;0.40;;;14.10;83.10;;;;;;5072111;28;20193;-64
2022/12/04 13:16:50;;;;;;;1.77;1.77;;;14.10;82.80;;;;;;5071712;28;20201;-65
2022/12/04 13:19:43;;;;;;;0.40;0.40;;;14.10;83.20;;;;;;5072082;28;20298;-65
2022/12/04 13:22:41;;;;;;;0.40;0.40;;;14.10;83.10;;;;;;5071908;28;20205;-66
2022/12/04 13:25:43;;;;;;;0.40;0.40;;;14.20;83.00;;;;;;5072570;28;20205;-64
2022/12/04 13:28:39;;;;;;;0.50;0.50;;;14.20;83.00;;;;;;5072290;28;20305;-64
2022/12/04 13:31:36;;;;;;;0.80;0.80;;;14.20;83.00;;;;;;5072241;28;20201;-65
2022/12/04 13:34:39;;;;;;;2.07;2.00;;;14.20;82.90;;;;;;5071780;28;20692;-65
2022/12/04 13:37:47;;;;;;;0.40;0.40;;;14.20;82.80;;;;;;5071040;28;20295;-64
2022/12/04 13:40:38;;;;;;;0.40;0.40;;;14.30;82.90;;;;;;5071843;28;20274;-64
2022/12/04 13:43:35;;;;;;;0.40;0.40;;;14.30;82.90;;;;;;5073267;28;20254;-64
2022/12/04 13:46:32;;;;;;;1.23;1.23;;;14.30;83.10;;;;;;5072372;28;20314;-64
2022/12/04 13:49:26;;;;;;;0.60;0.60;;;14.30;83.00;;;;;;5072409;28;20247;-64
2022/12/04 13:52:38;;;;;;;0.47;0.47;;;14.30;82.90;;;;;;5073263;28;20203;-65
2022/12/04 13:55:30;;;;;;;5.00;4.10;;;14.20;82.80;;;;;;5072707;28;20245;-65
2022/12/04 13:58:28;;;;;;;0.40;0.40;;;14.20;82.90;;;;;;5072344;28;20570;-64
2022/12/04 14:01:25;;;;;;;0.40;0.40;;;14.20;82.90;;;;;;5071655;28;20315;-64
2022/12/04 14:04:26;;;;;;;1.37;1.37;;;14.20;83.00;;;;;;5073392;28;20212;-64
2022/12/04 14:07:25;;;;;;;0.50;0.50;;;14.10;83.00;;;;;;5071365;28;20216;-64
2022/12/04 14:10:27;;;;;;;0.40;0.40;;;14.10;83.10;;;;;;5072254;28;20206;-64
2022/12/04 14:13:19;;;;;;;0.40;0.40;;;14.10;83.20;;;;;;5071763;28;20202;-64
2022/12/04 14:16:17;;;;;;;0.60;0.60;;;14.00;83.10;;;;;;5071988;28;20203;-65
2022/12/04 14:19:06;;;;;;;0.50;0.50;;;14.00;83.20;;;;;;5071730;28;20228;-66
2022/12/04 14:21:55;;;;;;;0.40;0.40;;;14.00;83.20;;;;;;5071477;28;20216;-65
2022/12/04 14:24:43;;;;;;;0.70;0.70;;;14.00;83.30;;;;;;5071482;28;20197;-65
2022/12/04 14:27:34;;;;;;;0.40;0.40;;;14.00;83.60;;;;;;5072146;28;20622;-65
2022/12/04 14:30:24;;;;;;;0.40;0.40;;;14.00;83.60;;;;;;5071470;28;20205;-65
2022/12/04 14:33:18;;;;;;;0.40;0.40;;;14.00;84.00;;;;;;5071429;28;20450;-64
2022/12/04 14:36:10;;;;;;;0.93;0.93;;;14.10;84.30;;;;;;5072076;28;20419;-64
2022/12/04 14:39:07;;;;;;;0.67;0.67;;;14.10;84.10;;;;;;5069894;28;20233;-64
2022/12/04 14:42:07;;;;;;;0.40;0.40;;;14.30;84.10;;;;;;5071167;28;20605;-64
2022/12/04 14:44:57;;;;;;;0.40;0.40;;;14.30;83.90;;;;;;5072111;28;20258;-63
2022/12/04 14:48:11;;;;;;;0.40;0.40;;;14.40;84.00;;;;;;5071230;28;20221;-65
2022/12/04 14:51:09;;;;;;;0.40;0.40;;;14.40;83.60;;;;;;5070421;28;20280;-64
2022/12/04 14:54:06;;;;;;;0.40;0.40;;;14.40;83.40;;;;;;5073734;28;20232;-64
2022/12/04 14:57:10;;;;;;;0.40;0.40;;;14.40;82.60;;;;;;5073998;28;20200;-64
2022/12/04 15:00:00;;;;;;;0.40;0.40;;;14.50;83.10;;;;;;5074699;28;20279;-64
2022/12/04 15:02:50;;;;;;;0.40;0.40;;;14.50;83.00;;;;;;5073632;28;20295;-65
2022/12/04 15:05:40;;;;;;;0.40;0.40;;;14.50;83.00;;;;;;5074921;28;20204;-64
2022/12/04 15:08:28;;;;;;;0.40;0.40;;;14.50;83.70;;;;;;5075211;28;20227;-65